createdAt,value
2018-10-21T00:00:06.798Z,1024.1
2018-10-21T00:00:32.953Z,1024.1
2018-10-21T00:00:59.087Z,1024.08
2018-10-21T00:01:25.219Z,1024.07
2018-10-21T00:01:51.368Z,1024.05
2018-10-21T00:02:17.563Z,1024.07
2018-10-21T00:02:43.677Z,1024.05
2018-10-21T00:03:09.887Z,1024.08
2018-10-21T00:03:35.961Z,1024.08
2018-10-21T00:04:02.103Z,1024.06
2018-10-21T00:04:28.248Z,1024.06
2018-10-21T00:04:54.382Z,1024.07
2018-10-21T00:05:20.522Z,1024.04
2018-10-21T00:05:46.649Z,1024.05
2018-10-21T00:06:12.772Z,1024.04
2018-10-21T00:06:38.938Z,1024.04
2018-10-21T00:07:05.067Z,1024
2018-10-21T00:07:31.196Z,1024.04
2018-10-21T00:07:57.326Z,1024
2018-10-21T00:08:23.458Z,1024
2018-10-21T00:08:49.621Z,1024
2018-10-21T00:09:15.883Z,1023.96
2018-10-21T00:09:41.927Z,1023.97
2018-10-21T00:10:08.108Z,1023.92
2018-10-21T00:10:34.285Z,1023.96
2018-10-21T00:11:00.419Z,1023.94
2018-10-21T00:11:26.556Z,1023.88
2018-10-21T00:11:52.686Z,1023.88
2018-10-21T00:12:18.822Z,1023.87
2018-10-21T00:12:44.957Z,1023.88
2018-10-21T00:13:11.098Z,1023.86
2018-10-21T00:13:37.244Z,1023.84
2018-10-21T00:14:03.371Z,1023.86
2018-10-21T00:14:29.506Z,1023.84
2018-10-21T00:14:55.681Z,1023.85
2018-10-21T00:15:22.000Z,1023.85
2018-10-21T00:15:47.955Z,1023.83
2018-10-21T00:16:14.081Z,1023.85
2018-10-21T00:16:40.242Z,1023.8
2018-10-21T00:17:06.372Z,1023.81
2018-10-21T00:17:32.528Z,1023.78
2018-10-21T00:17:58.685Z,1023.8
2018-10-21T00:18:24.820Z,1023.8
2018-10-21T00:18:50.948Z,1023.78
2018-10-21T00:19:17.082Z,1023.76
2018-10-21T00:19:43.233Z,1023.73
2018-10-21T00:20:09.366Z,1023.75
2018-10-21T00:20:35.499Z,1023.74
2018-10-21T00:21:01.707Z,1023.74
2018-10-21T00:21:27.784Z,1023.77
2018-10-21T00:21:53.921Z,1023.75
2018-10-21T00:22:20.058Z,1023.76
2018-10-21T00:22:46.186Z,1023.78
2018-10-21T00:23:12.320Z,1023.81
2018-10-21T00:23:38.451Z,1023.8
2018-10-21T00:24:04.585Z,1023.81
2018-10-21T00:24:30.719Z,1023.84
2018-10-21T00:24:56.853Z,1023.82
2018-10-21T00:25:23.017Z,1023.81
2018-10-21T00:25:49.140Z,1023.83
2018-10-21T00:26:15.280Z,1023.87
2018-10-21T00:26:41.408Z,1023.83
2018-10-21T00:27:07.653Z,1023.86
2018-10-21T00:27:33.729Z,1023.86
2018-10-21T00:28:00.093Z,1023.87
2018-10-21T00:28:26.225Z,1023.85
2018-10-21T00:28:52.389Z,1023.87
2018-10-21T00:29:18.517Z,1023.87
2018-10-21T00:29:44.655Z,1023.89
2018-10-21T00:30:10.783Z,1023.87
2018-10-21T00:30:36.921Z,1023.89
2018-10-21T00:31:03.047Z,1023.88
2018-10-21T00:31:29.185Z,1023.86
2018-10-21T00:31:55.334Z,1023.88
2018-10-21T00:32:21.501Z,1023.86
2018-10-21T00:32:47.627Z,1023.85
2018-10-21T00:33:13.922Z,1023.85
2018-10-21T00:33:39.894Z,1023.86
2018-10-21T00:34:06.025Z,1023.83
2018-10-21T00:34:32.161Z,1023.87
2018-10-21T00:34:58.295Z,1023.83
2018-10-21T00:35:24.422Z,1023.84
2018-10-21T00:35:50.550Z,1023.85
2018-10-21T00:36:16.708Z,1023.85
2018-10-21T00:36:42.823Z,1023.84
2018-10-21T00:37:08.958Z,1023.85
2018-10-21T00:37:35.090Z,1023.86
2018-10-21T00:38:01.259Z,1023.83
2018-10-21T00:38:27.391Z,1023.83
2018-10-21T00:38:53.598Z,1023.79
2018-10-21T00:39:19.669Z,1023.83
2018-10-21T00:39:45.802Z,1023.8
2018-10-21T00:40:11.949Z,1023.77
2018-10-21T00:40:38.094Z,1023.79
2018-10-21T00:41:04.253Z,1023.83
2018-10-21T00:41:30.393Z,1023.81
2018-10-21T00:41:56.516Z,1023.82
2018-10-21T00:42:22.683Z,1023.79
2018-10-21T00:42:48.819Z,1023.77
2018-10-21T00:43:14.951Z,1023.76
2018-10-21T00:43:41.103Z,1023.8
2018-10-21T00:44:07.237Z,1023.79
2018-10-21T00:44:33.370Z,1023.79
2018-10-21T00:44:59.533Z,1023.77
2018-10-21T00:45:25.674Z,1023.76
2018-10-21T00:45:51.811Z,1023.79
2018-10-21T00:46:17.945Z,1023.76
2018-10-21T00:46:44.080Z,1023.8
2018-10-21T00:47:10.233Z,1023.79
2018-10-21T00:47:36.361Z,1023.77
2018-10-21T00:48:02.497Z,1023.79
2018-10-21T00:48:28.628Z,1023.76
2018-10-21T00:48:54.757Z,1023.77
2018-10-21T00:49:20.882Z,1023.79
2018-10-21T00:49:47.029Z,1023.79
2018-10-21T00:50:13.171Z,1023.75
2018-10-21T00:50:39.295Z,1023.77
2018-10-21T00:51:05.487Z,1023.8
2018-10-21T00:51:31.600Z,1023.78
2018-10-21T00:51:57.739Z,1023.79
2018-10-21T00:52:23.893Z,1023.78
2018-10-21T00:52:50.033Z,1023.78
2018-10-21T00:53:16.169Z,1023.78
2018-10-21T00:53:42.299Z,1023.76
2018-10-21T00:54:08.423Z,1023.76
2018-10-21T00:54:34.583Z,1023.76
2018-10-21T00:55:00.768Z,1023.77
2018-10-21T00:55:26.900Z,1023.75
2018-10-21T00:55:53.051Z,1023.74
2018-10-21T00:56:19.191Z,1023.77
2018-10-21T00:56:45.344Z,1023.75
2018-10-21T00:57:11.553Z,1023.7
2018-10-21T00:57:37.628Z,1023.77
2018-10-21T00:58:03.753Z,1023.76
2018-10-21T00:58:29.883Z,1023.72
2018-10-21T00:58:56.017Z,1023.74
2018-10-21T00:59:22.146Z,1023.75
2018-10-21T00:59:48.303Z,1023.76
2018-10-21T01:00:14.441Z,1023.77
2018-10-21T01:00:40.565Z,1023.77
2018-10-21T01:01:06.696Z,1023.73
2018-10-21T01:01:32.830Z,1023.75
2018-10-21T01:01:58.984Z,1023.72
2018-10-21T01:02:25.118Z,1023.75
2018-10-21T01:02:51.249Z,1023.72
2018-10-21T01:03:17.441Z,1023.73
2018-10-21T01:03:43.555Z,1023.7
2018-10-21T01:04:09.702Z,1023.73
2018-10-21T01:04:35.862Z,1023.72
2018-10-21T01:05:01.994Z,1023.72
2018-10-21T01:05:28.150Z,1023.71
2018-10-21T01:05:54.278Z,1023.74
2018-10-21T01:06:20.412Z,1023.71
2018-10-21T01:06:46.566Z,1023.73
2018-10-21T01:07:12.692Z,1023.74
2018-10-21T01:07:38.829Z,1023.65
2018-10-21T01:08:04.962Z,1023.69
2018-10-21T01:08:31.085Z,1023.72
2018-10-21T01:08:57.279Z,1023.69
2018-10-21T01:09:23.416Z,1023.66
2018-10-21T01:09:49.547Z,1023.68
2018-10-21T01:10:15.681Z,1023.69
2018-10-21T01:10:41.814Z,1023.71
2018-10-21T01:11:07.940Z,1023.68
2018-10-21T01:11:34.072Z,1023.7
2018-10-21T01:12:00.244Z,1023.66
2018-10-21T01:12:26.381Z,1023.66
2018-10-21T01:12:52.516Z,1023.69
2018-10-21T01:13:18.644Z,1023.7
2018-10-21T01:13:44.784Z,1023.72
2018-10-21T01:14:10.938Z,1023.72
2018-10-21T01:14:37.073Z,1023.72
2018-10-21T01:15:03.229Z,1023.73
2018-10-21T01:15:29.358Z,1023.72
2018-10-21T01:15:55.496Z,1023.74
2018-10-21T01:16:21.621Z,1023.79
2018-10-21T01:16:47.773Z,1023.77
2018-10-21T01:17:13.922Z,1023.79
2018-10-21T01:17:40.052Z,1023.8
2018-10-21T01:18:06.202Z,1023.78
2018-10-21T01:18:32.327Z,1023.8
2018-10-21T01:18:58.461Z,1023.83
2018-10-21T01:19:24.616Z,1023.78
2018-10-21T01:19:50.746Z,1023.82
2018-10-21T01:20:16.876Z,1023.89
2018-10-21T01:20:43.009Z,1023.86
2018-10-21T01:21:09.186Z,1023.85
2018-10-21T01:21:35.273Z,1023.86
2018-10-21T01:22:01.436Z,1023.84
2018-10-21T01:22:27.561Z,1023.84
2018-10-21T01:22:53.691Z,1023.84
2018-10-21T01:23:19.828Z,1023.86
2018-10-21T01:23:45.963Z,1023.82
2018-10-21T01:24:12.094Z,1023.82
2018-10-21T01:24:38.269Z,1023.81
2018-10-21T01:25:04.428Z,1023.86
2018-10-21T01:25:30.563Z,1023.83
2018-10-21T01:25:56.719Z,1023.76
2018-10-21T01:26:22.868Z,1023.76
2018-10-21T01:26:49.001Z,1023.8
2018-10-21T01:27:15.281Z,1023.8
2018-10-21T01:27:41.295Z,1023.75
2018-10-21T01:28:07.455Z,1023.75
2018-10-21T01:28:33.596Z,1023.75
2018-10-21T01:28:59.717Z,1023.75
2018-10-21T01:29:25.850Z,1023.75
2018-10-21T01:29:52.011Z,1023.75
2018-10-21T01:30:18.161Z,1023.73
2018-10-21T01:30:44.318Z,1023.78
2018-10-21T01:31:10.447Z,1023.78
2018-10-21T01:31:36.588Z,1023.76
2018-10-21T01:32:02.715Z,1023.77
2018-10-21T01:32:28.844Z,1023.78
2018-10-21T01:32:54.978Z,1023.78
2018-10-21T01:33:21.114Z,1023.82
2018-10-21T01:33:47.251Z,1023.82
2018-10-21T01:34:13.400Z,1023.82
2018-10-21T01:34:39.529Z,1023.82
2018-10-21T01:35:05.661Z,1023.81
2018-10-21T01:35:31.788Z,1023.79
2018-10-21T01:35:57.924Z,1023.76
2018-10-21T01:36:24.240Z,1023.78
2018-10-21T01:36:50.309Z,1023.78
2018-10-21T01:37:16.558Z,1023.76
2018-10-21T01:37:42.614Z,1023.75
2018-10-21T01:38:08.793Z,1023.77
2018-10-21T01:38:34.890Z,1023.8
2018-10-21T01:39:01.060Z,1023.81
2018-10-21T01:39:27.153Z,1023.8
2018-10-21T01:39:53.282Z,1023.82
2018-10-21T01:40:19.421Z,1023.8
2018-10-21T01:40:45.555Z,1023.84
2018-10-21T01:41:11.706Z,1023.85
2018-10-21T01:41:37.835Z,1023.82
2018-10-21T01:42:03.968Z,1023.82
2018-10-21T01:42:30.097Z,1023.81
2018-10-21T01:42:56.226Z,1023.79
2018-10-21T01:43:22.359Z,1023.83
2018-10-21T01:43:48.483Z,1023.81
2018-10-21T01:44:14.645Z,1023.8
2018-10-21T01:44:40.780Z,1023.8
2018-10-21T01:45:06.968Z,1023.83
2018-10-21T01:45:33.039Z,1023.79
2018-10-21T01:45:59.170Z,1023.81
2018-10-21T01:46:25.322Z,1023.81
2018-10-21T01:46:51.463Z,1023.82
2018-10-21T01:47:17.595Z,1023.8
2018-10-21T01:47:43.731Z,1023.77
2018-10-21T01:48:09.863Z,1023.77
2018-10-21T01:48:36.001Z,1023.82
2018-10-21T01:49:02.127Z,1023.8
2018-10-21T01:49:28.262Z,1023.81
2018-10-21T01:49:54.395Z,1023.82
2018-10-21T01:50:20.527Z,1023.83
2018-10-21T01:50:46.665Z,1023.82
2018-10-21T01:51:12.835Z,1023.88
2018-10-21T01:51:38.965Z,1023.84
2018-10-21T01:52:05.093Z,1023.85
2018-10-21T01:52:31.295Z,1023.86
2018-10-21T01:52:57.373Z,1023.84
2018-10-21T01:53:23.509Z,1023.87
2018-10-21T01:53:49.663Z,1023.86
2018-10-21T01:54:15.793Z,1023.83
2018-10-21T01:54:41.921Z,1023.87
2018-10-21T01:55:08.073Z,1023.89
2018-10-21T01:55:34.208Z,1023.88
2018-10-21T01:56:00.379Z,1023.9
2018-10-21T01:56:26.513Z,1023.86
2018-10-21T01:56:52.638Z,1023.87
2018-10-21T01:57:18.890Z,1023.87
2018-10-21T01:57:44.936Z,1023.89
2018-10-21T01:58:11.100Z,1023.9
2018-10-21T01:58:37.223Z,1023.89
2018-10-21T01:59:03.361Z,1023.87
2018-10-21T01:59:29.495Z,1023.93
2018-10-21T01:59:55.624Z,1023.89
2018-10-21T02:00:21.752Z,1023.87
2018-10-21T02:00:47.883Z,1023.9
2018-10-21T02:01:14.019Z,1023.88
2018-10-21T02:01:40.154Z,1023.87
2018-10-21T02:02:06.286Z,1023.86
2018-10-21T02:02:32.419Z,1023.84
2018-10-21T02:02:58.642Z,1023.86
2018-10-21T02:03:24.753Z,1023.82
2018-10-21T02:03:50.882Z,1023.84
2018-10-21T02:04:17.018Z,1023.87
2018-10-21T02:04:43.153Z,1023.85
2018-10-21T02:05:09.277Z,1023.81
2018-10-21T02:05:35.415Z,1023.83
2018-10-21T02:06:01.540Z,1023.84
2018-10-21T02:06:27.666Z,1023.81
2018-10-21T02:06:53.804Z,1023.81
2018-10-21T02:07:19.942Z,1023.81
2018-10-21T02:07:46.107Z,1023.82
2018-10-21T02:08:12.255Z,1023.81
2018-10-21T02:08:38.418Z,1023.8
2018-10-21T02:09:04.625Z,1023.81
2018-10-21T02:09:30.725Z,1023.81
2018-10-21T02:09:56.884Z,1023.77
2018-10-21T02:10:23.063Z,1023.78
2018-10-21T02:10:49.184Z,1023.8
2018-10-21T02:11:15.348Z,1023.78
2018-10-21T02:11:41.481Z,1023.78
2018-10-21T02:12:07.620Z,1023.81
2018-10-21T02:12:33.770Z,1023.81
2018-10-21T02:12:59.906Z,1023.77
2018-10-21T02:13:26.046Z,1023.79
2018-10-21T02:13:52.176Z,1023.78
2018-10-21T02:14:18.333Z,1023.79
2018-10-21T02:14:44.455Z,1023.81
2018-10-21T02:15:10.684Z,1023.83
2018-10-21T02:15:36.774Z,1023.8
2018-10-21T02:16:02.937Z,1023.81
2018-10-21T02:16:29.067Z,1023.75
2018-10-21T02:16:55.204Z,1023.74
2018-10-21T02:17:21.327Z,1023.77
2018-10-21T02:17:47.452Z,1023.81
2018-10-21T02:18:13.590Z,1023.79
2018-10-21T02:18:39.747Z,1023.8
2018-10-21T02:19:05.870Z,1023.79
2018-10-21T02:19:32.003Z,1023.77
2018-10-21T02:19:58.135Z,1023.77
2018-10-21T02:20:24.269Z,1023.79
2018-10-21T02:20:50.401Z,1023.76
2018-10-21T02:21:16.682Z,1023.75
2018-10-21T02:21:42.729Z,1023.75
2018-10-21T02:22:08.867Z,1023.77
2018-10-21T02:22:35.017Z,1023.75
2018-10-21T02:23:01.170Z,1023.74
2018-10-21T02:23:27.296Z,1023.75
2018-10-21T02:23:53.424Z,1023.73
2018-10-21T02:24:19.557Z,1023.77
2018-10-21T02:24:45.721Z,1023.74
2018-10-21T02:25:11.844Z,1023.73
2018-10-21T02:25:37.974Z,1023.69
2018-10-21T02:26:04.114Z,1023.75
2018-10-21T02:26:30.434Z,1023.72
2018-10-21T02:26:56.540Z,1023.72
2018-10-21T02:27:22.599Z,1023.75
2018-10-21T02:27:48.731Z,1023.74
2018-10-21T02:28:14.889Z,1023.72
2018-10-21T02:28:41.018Z,1023.74
2018-10-21T02:29:07.171Z,1023.71
2018-10-21T02:29:33.308Z,1023.76
2018-10-21T02:29:59.463Z,1023.75
2018-10-21T02:30:25.622Z,1023.71
2018-10-21T02:30:51.812Z,1023.73
2018-10-21T02:31:18.001Z,1023.76
2018-10-21T02:31:44.158Z,1023.69
2018-10-21T02:32:10.342Z,1023.75
2018-10-21T02:32:36.477Z,1023.73
2018-10-21T02:33:02.776Z,1023.76
2018-10-21T02:33:28.999Z,1023.69
2018-10-21T02:33:54.958Z,1023.71
2018-10-21T02:34:21.113Z,1023.7
2018-10-21T02:34:47.246Z,1023.72
2018-10-21T02:35:13.430Z,1023.71
2018-10-21T02:35:39.574Z,1023.73
2018-10-21T02:36:05.705Z,1023.71
2018-10-21T02:36:31.867Z,1023.68
2018-10-21T02:36:57.996Z,1023.7
2018-10-21T02:37:24.216Z,1023.7
2018-10-21T02:37:50.312Z,1023.69
2018-10-21T02:38:16.440Z,1023.68
2018-10-21T02:38:42.598Z,1023.68
2018-10-21T02:39:08.826Z,1023.68
2018-10-21T02:39:34.930Z,1023.65
2018-10-21T02:40:01.080Z,1023.67
2018-10-21T02:40:27.253Z,1023.66
2018-10-21T02:40:53.388Z,1023.62
2018-10-21T02:41:19.518Z,1023.66
2018-10-21T02:41:45.673Z,1023.62
2018-10-21T02:42:11.800Z,1023.63
2018-10-21T02:42:37.927Z,1023.6
2018-10-21T02:43:04.131Z,1023.61
2018-10-21T02:43:30.295Z,1023.65
2018-10-21T02:43:56.421Z,1023.65
2018-10-21T02:44:22.602Z,1023.66
2018-10-21T02:44:48.759Z,1023.65
2018-10-21T02:45:14.946Z,1023.68
2018-10-21T02:45:41.066Z,1023.63
2018-10-21T02:46:07.202Z,1023.64
2018-10-21T02:46:33.356Z,1023.65
2018-10-21T02:46:59.518Z,1023.7
2018-10-21T02:47:25.675Z,1023.62
2018-10-21T02:47:51.820Z,1023.58
2018-10-21T02:48:17.942Z,1023.62
2018-10-21T02:48:44.075Z,1023.59
2018-10-21T02:49:10.235Z,1023.6
2018-10-21T02:49:36.395Z,1023.56
2018-10-21T02:50:02.520Z,1023.57
2018-10-21T02:50:28.708Z,1023.58
2018-10-21T02:50:54.869Z,1023.57
2018-10-21T02:51:20.998Z,1023.54
2018-10-21T02:51:47.182Z,1023.56
2018-10-21T02:52:13.332Z,1023.51
2018-10-21T02:52:39.508Z,1023.54
2018-10-21T02:53:05.671Z,1023.52
2018-10-21T02:53:31.848Z,1023.51
2018-10-21T02:53:57.983Z,1023.52
2018-10-21T02:54:24.110Z,1023.57
2018-10-21T02:54:50.268Z,1023.56
2018-10-21T02:55:16.405Z,1023.55
2018-10-21T02:55:42.558Z,1023.57
2018-10-21T02:56:08.717Z,1023.59
2018-10-21T02:56:34.889Z,1023.57
2018-10-21T02:57:01.117Z,1023.59
2018-10-21T02:57:27.237Z,1023.58
2018-10-21T02:57:53.368Z,1023.62
2018-10-21T02:58:19.498Z,1023.57
2018-10-21T02:58:45.655Z,1023.57
2018-10-21T02:59:11.818Z,1023.6
2018-10-21T02:59:37.992Z,1023.57
2018-10-21T03:00:04.120Z,1023.54
2018-10-21T03:00:30.246Z,1023.54
2018-10-21T03:00:56.382Z,1023.54
2018-10-21T03:01:22.535Z,1023.5
2018-10-21T03:01:48.667Z,1023.49
2018-10-21T03:02:14.807Z,1023.51
2018-10-21T03:02:40.950Z,1023.5
2018-10-21T03:03:07.108Z,1023.49
2018-10-21T03:03:33.238Z,1023.53
2018-10-21T03:03:59.366Z,1023.51
2018-10-21T03:04:25.500Z,1023.52
2018-10-21T03:04:51.628Z,1023.55
2018-10-21T03:05:17.789Z,1023.51
2018-10-21T03:05:43.933Z,1023.55
2018-10-21T03:06:10.085Z,1023.56
2018-10-21T03:06:36.264Z,1023.53
2018-10-21T03:07:02.387Z,1023.57
2018-10-21T03:07:28.525Z,1023.51
2018-10-21T03:07:54.654Z,1023.53
2018-10-21T03:08:20.813Z,1023.55
2018-10-21T03:08:46.970Z,1023.5
2018-10-21T03:09:13.278Z,1023.52
2018-10-21T03:09:39.310Z,1023.52
2018-10-21T03:10:05.448Z,1023.48
2018-10-21T03:10:31.574Z,1023.51
2018-10-21T03:10:57.753Z,1023.52
2018-10-21T03:11:23.892Z,1023.53
2018-10-21T03:11:50.053Z,1023.51
2018-10-21T03:12:16.184Z,1023.55
2018-10-21T03:12:42.358Z,1023.56
2018-10-21T03:13:08.519Z,1023.53
2018-10-21T03:13:34.651Z,1023.57
2018-10-21T03:14:00.808Z,1023.59
2018-10-21T03:14:26.988Z,1023.58
2018-10-21T03:14:53.129Z,1023.56
2018-10-21T03:15:19.271Z,1023.55
2018-10-21T03:15:45.429Z,1023.54
2018-10-21T03:16:11.559Z,1023.55
2018-10-21T03:16:37.693Z,1023.55
2018-10-21T03:17:03.847Z,1023.52
2018-10-21T03:17:30.008Z,1023.54
2018-10-21T03:17:56.156Z,1023.55
2018-10-21T03:18:22.332Z,1023.53
2018-10-21T03:18:48.462Z,1023.52
2018-10-21T03:19:14.640Z,1023.54
2018-10-21T03:19:40.813Z,1023.55
2018-10-21T03:20:06.947Z,1023.53
2018-10-21T03:20:33.087Z,1023.56
2018-10-21T03:20:59.357Z,1023.53
2018-10-21T03:21:25.384Z,1023.5
2018-10-21T03:21:51.569Z,1023.5
2018-10-21T03:22:17.772Z,1023.48
2018-10-21T03:22:43.902Z,1023.49
2018-10-21T03:23:10.036Z,1023.49
2018-10-21T03:23:36.162Z,1023.51
2018-10-21T03:24:02.301Z,1023.44
2018-10-21T03:24:28.423Z,1023.47
2018-10-21T03:24:54.582Z,1023.47
2018-10-21T03:25:20.717Z,1023.48
2018-10-21T03:25:46.853Z,1023.46
2018-10-21T03:26:13.023Z,1023.48
2018-10-21T03:26:39.123Z,1023.5
2018-10-21T03:27:05.292Z,1023.52
2018-10-21T03:27:31.416Z,1023.49
2018-10-21T03:27:57.566Z,1023.49
2018-10-21T03:28:23.694Z,1023.56
2018-10-21T03:28:49.853Z,1023.52
2018-10-21T03:29:16.009Z,1023.56
2018-10-21T03:29:42.181Z,1023.54
2018-10-21T03:30:08.340Z,1023.56
2018-10-21T03:30:34.527Z,1023.55
2018-10-21T03:31:00.723Z,1023.59
2018-10-21T03:31:26.911Z,1023.58
2018-10-21T03:31:53.058Z,1023.62
2018-10-21T03:32:19.248Z,1023.57
2018-10-21T03:32:45.388Z,1023.58
2018-10-21T03:33:11.755Z,1023.6
2018-10-21T03:33:37.741Z,1023.56
2018-10-21T03:34:03.995Z,1023.59
2018-10-21T03:34:30.042Z,1023.59
2018-10-21T03:34:56.187Z,1023.57
2018-10-21T03:35:22.368Z,1023.58
2018-10-21T03:35:48.525Z,1023.58
2018-10-21T03:36:14.658Z,1023.6
2018-10-21T03:36:40.789Z,1023.57
2018-10-21T03:37:06.926Z,1023.59
2018-10-21T03:37:33.055Z,1023.6
2018-10-21T03:37:59.206Z,1023.58
2018-10-21T03:38:25.378Z,1023.58
2018-10-21T03:38:51.532Z,1023.56
2018-10-21T03:39:17.692Z,1023.55
2018-10-21T03:39:43.819Z,1023.56
2018-10-21T03:40:10.009Z,1023.54
2018-10-21T03:40:36.125Z,1023.56
2018-10-21T03:41:02.275Z,1023.54
2018-10-21T03:41:28.424Z,1023.51
2018-10-21T03:41:54.582Z,1023.54
2018-10-21T03:42:20.731Z,1023.52
2018-10-21T03:42:46.890Z,1023.54
2018-10-21T03:43:13.056Z,1023.51
2018-10-21T03:43:39.225Z,1023.52
2018-10-21T03:44:05.356Z,1023.5
2018-10-21T03:44:31.493Z,1023.47
2018-10-21T03:44:57.649Z,1023.5
2018-10-21T03:45:23.782Z,1023.46
2018-10-21T03:45:49.959Z,1023.48
2018-10-21T03:46:16.178Z,1023.49
2018-10-21T03:46:42.249Z,1023.44
2018-10-21T03:47:08.388Z,1023.45
2018-10-21T03:47:34.511Z,1023.42
2018-10-21T03:48:00.668Z,1023.42
2018-10-21T03:48:26.803Z,1023.39
2018-10-21T03:48:52.936Z,1023.42
2018-10-21T03:49:19.086Z,1023.41
2018-10-21T03:49:45.220Z,1023.4
2018-10-21T03:50:11.374Z,1023.41
2018-10-21T03:50:37.510Z,1023.42
2018-10-21T03:51:03.650Z,1023.39
2018-10-21T03:51:29.773Z,1023.35
2018-10-21T03:51:55.936Z,1023.4
2018-10-21T03:52:22.052Z,1023.38
2018-10-21T03:52:48.193Z,1023.37
2018-10-21T03:53:14.320Z,1023.41
2018-10-21T03:53:40.500Z,1023.4
2018-10-21T03:54:06.658Z,1023.41
2018-10-21T03:54:32.800Z,1023.41
2018-10-21T03:54:58.958Z,1023.36
2018-10-21T03:55:25.108Z,1023.37
2018-10-21T03:55:51.241Z,1023.36
2018-10-21T03:56:17.392Z,1023.37
2018-10-21T03:56:43.526Z,1023.35
2018-10-21T03:57:09.664Z,1023.32
2018-10-21T03:57:35.780Z,1023.32
2018-10-21T03:58:01.996Z,1023.32
2018-10-21T03:58:28.076Z,1023.3
2018-10-21T03:58:54.230Z,1023.35
2018-10-21T03:59:20.366Z,1023.33
2018-10-21T03:59:46.494Z,1023.33
2018-10-21T04:00:12.631Z,1023.32
2018-10-21T04:00:38.760Z,1023.33
2018-10-21T04:01:04.899Z,1023.35
2018-10-21T04:01:31.055Z,1023.33
2018-10-21T04:01:57.181Z,1023.35
2018-10-21T04:02:23.315Z,1023.34
2018-10-21T04:02:49.448Z,1023.37
2018-10-21T04:03:15.600Z,1023.33
2018-10-21T04:03:41.750Z,1023.36
2018-10-21T04:04:07.940Z,1023.31
2018-10-21T04:04:34.041Z,1023.37
2018-10-21T04:05:00.177Z,1023.37
2018-10-21T04:05:26.304Z,1023.33
2018-10-21T04:05:52.436Z,1023.32
2018-10-21T04:06:18.578Z,1023.29
2018-10-21T04:06:44.713Z,1023.28
2018-10-21T04:07:10.839Z,1023.27
2018-10-21T04:07:36.975Z,1023.26
2018-10-21T04:08:03.106Z,1023.28
2018-10-21T04:08:29.266Z,1023.27
2018-10-21T04:08:55.397Z,1023.28
2018-10-21T04:09:21.554Z,1023.28
2018-10-21T04:09:47.687Z,1023.33
2018-10-21T04:10:13.936Z,1023.33
2018-10-21T04:10:39.989Z,1023.3
2018-10-21T04:11:06.122Z,1023.3
2018-10-21T04:11:32.259Z,1023.33
2018-10-21T04:11:58.417Z,1023.29
2018-10-21T04:12:24.567Z,1023.28
2018-10-21T04:12:50.701Z,1023.27
2018-10-21T04:13:16.860Z,1023.27
2018-10-21T04:13:42.991Z,1023.28
2018-10-21T04:14:09.123Z,1023.26
2018-10-21T04:14:35.254Z,1023.28
2018-10-21T04:15:01.383Z,1023.28
2018-10-21T04:15:27.522Z,1023.27
2018-10-21T04:15:53.701Z,1023.27
2018-10-21T04:16:19.788Z,1023.3
2018-10-21T04:16:45.913Z,1023.27
2018-10-21T04:17:12.041Z,1023.27
2018-10-21T04:17:38.173Z,1023.27
2018-10-21T04:18:04.303Z,1023.25
2018-10-21T04:18:30.461Z,1023.27
2018-10-21T04:18:56.597Z,1023.27
2018-10-21T04:19:22.725Z,1023.25
2018-10-21T04:19:48.854Z,1023.22
2018-10-21T04:20:14.985Z,1023.23
2018-10-21T04:20:41.112Z,1023.23
2018-10-21T04:21:07.243Z,1023.21
2018-10-21T04:21:33.367Z,1023.21
2018-10-21T04:21:59.502Z,1023.2
2018-10-21T04:22:25.628Z,1023.22
2018-10-21T04:22:51.778Z,1023.21
2018-10-21T04:23:17.909Z,1023.22
2018-10-21T04:23:44.074Z,1023.22
2018-10-21T04:24:10.204Z,1023.25
2018-10-21T04:24:36.336Z,1023.26
2018-10-21T04:25:02.472Z,1023.22
2018-10-21T04:25:28.623Z,1023.24
2018-10-21T04:25:54.751Z,1023.23
2018-10-21T04:26:20.881Z,1023.24
2018-10-21T04:26:47.008Z,1023.24
2018-10-21T04:27:13.140Z,1023.2
2018-10-21T04:27:39.268Z,1023.22
2018-10-21T04:28:05.495Z,1023.24
2018-10-21T04:28:31.534Z,1023.23
2018-10-21T04:28:57.667Z,1023.26
2018-10-21T04:29:23.798Z,1023.25
2018-10-21T04:29:49.923Z,1023.31
2018-10-21T04:30:16.057Z,1023.23
2018-10-21T04:30:42.188Z,1023.25
2018-10-21T04:31:08.325Z,1023.25
2018-10-21T04:31:34.452Z,1023.26
2018-10-21T04:32:00.586Z,1023.22
2018-10-21T04:32:26.723Z,1023.24
2018-10-21T04:32:52.853Z,1023.26
2018-10-21T04:33:18.987Z,1023.25
2018-10-21T04:33:45.146Z,1023.25
2018-10-21T04:34:11.396Z,1023.27
2018-10-21T04:34:37.445Z,1023.24
2018-10-21T04:35:03.583Z,1023.25
2018-10-21T04:35:29.839Z,1023.25
2018-10-21T04:35:55.881Z,1023.25
2018-10-21T04:36:22.039Z,1023.27
2018-10-21T04:36:48.166Z,1023.26
2018-10-21T04:37:14.295Z,1023.29
2018-10-21T04:37:40.432Z,1023.27
2018-10-21T04:38:06.561Z,1023.26
2018-10-21T04:38:32.736Z,1023.27
2018-10-21T04:38:58.849Z,1023.26
2018-10-21T04:39:24.980Z,1023.27
2018-10-21T04:39:51.114Z,1023.29
2018-10-21T04:40:17.435Z,1023.28
2018-10-21T04:40:43.393Z,1023.28
2018-10-21T04:41:09.577Z,1023.27
2018-10-21T04:41:35.709Z,1023.29
2018-10-21T04:42:01.849Z,1023.28
2018-10-21T04:42:27.976Z,1023.25
2018-10-21T04:42:54.139Z,1023.24
2018-10-21T04:43:20.295Z,1023.23
2018-10-21T04:43:46.426Z,1023.22
2018-10-21T04:44:12.555Z,1023.21
2018-10-21T04:44:38.698Z,1023.21
2018-10-21T04:45:04.825Z,1023.21
2018-10-21T04:45:30.956Z,1023.19
2018-10-21T04:45:57.154Z,1023.17
2018-10-21T04:46:23.302Z,1023.21
2018-10-21T04:46:49.530Z,1023.19
2018-10-21T04:47:15.523Z,1023.19
2018-10-21T04:47:41.664Z,1023.21
2018-10-21T04:48:07.794Z,1023.21
2018-10-21T04:48:33.926Z,1023.2
2018-10-21T04:49:00.057Z,1023.19
2018-10-21T04:49:26.191Z,1023.17
2018-10-21T04:49:52.318Z,1023.2
2018-10-21T04:50:18.452Z,1023.16
2018-10-21T04:50:44.594Z,1023.17
2018-10-21T04:51:10.717Z,1023.15
2018-10-21T04:51:36.858Z,1023.14
2018-10-21T04:52:03.050Z,1023.12
2018-10-21T04:52:29.171Z,1023.14
2018-10-21T04:52:55.299Z,1023.15
2018-10-21T04:53:21.460Z,1023.16
2018-10-21T04:53:47.595Z,1023.17
2018-10-21T04:54:13.723Z,1023.13
2018-10-21T04:54:39.852Z,1023.12
2018-10-21T04:55:06.008Z,1023.13
2018-10-21T04:55:32.140Z,1023.13
2018-10-21T04:55:58.318Z,1023.08
2018-10-21T04:56:24.485Z,1023.13
2018-10-21T04:56:50.611Z,1023.16
2018-10-21T04:57:16.746Z,1023.1
2018-10-21T04:57:42.873Z,1023.1
2018-10-21T04:58:09.066Z,1023.09
2018-10-21T04:58:35.179Z,1023.12
2018-10-21T04:59:01.336Z,1023.12
2018-10-21T04:59:27.485Z,1023.07
2018-10-21T04:59:53.617Z,1023.11
2018-10-21T05:00:19.774Z,1023.1
2018-10-21T05:00:45.956Z,1023.12
2018-10-21T05:01:12.032Z,1023.13
2018-10-21T05:01:38.159Z,1023.15
2018-10-21T05:02:04.287Z,1023.13
2018-10-21T05:02:30.418Z,1023.07
2018-10-21T05:02:56.579Z,1023.11
2018-10-21T05:03:22.707Z,1023.12
2018-10-21T05:03:48.844Z,1023.09
2018-10-21T05:04:15.110Z,1023.09
2018-10-21T05:04:41.135Z,1023.09
2018-10-21T05:05:07.310Z,1023.05
2018-10-21T05:05:33.454Z,1023.08
2018-10-21T05:05:59.590Z,1023.08
2018-10-21T05:06:25.719Z,1023.07
2018-10-21T05:06:51.876Z,1023.1
2018-10-21T05:07:18.091Z,1023.05
2018-10-21T05:07:44.294Z,1023.06
2018-10-21T05:08:10.360Z,1023.02
2018-10-21T05:08:36.514Z,1023.07
2018-10-21T05:09:02.665Z,1023.05
2018-10-21T05:09:28.794Z,1023.06
2018-10-21T05:09:54.937Z,1023.03
2018-10-21T05:10:21.075Z,1023.04
2018-10-21T05:10:47.252Z,1023.04
2018-10-21T05:11:13.382Z,1023.05
2018-10-21T05:11:39.514Z,1023.05
2018-10-21T05:12:05.643Z,1023.03
2018-10-21T05:12:31.780Z,1023.04
2018-10-21T05:12:57.936Z,1023.06
2018-10-21T05:13:24.069Z,1023.03
2018-10-21T05:13:50.199Z,1023.08
2018-10-21T05:14:16.327Z,1023.08
2018-10-21T05:14:42.454Z,1023.08
2018-10-21T05:15:08.736Z,1023.06
2018-10-21T05:15:34.841Z,1023.11
2018-10-21T05:16:01.012Z,1023.05
2018-10-21T05:16:27.149Z,1023.09
2018-10-21T05:16:53.305Z,1023.08
2018-10-21T05:17:19.437Z,1023.07